Portada
METAR-TAF:

METAR-TAF

Aeroports :

Concord, Nova Hampshire, Estats Units d'Amèrica

latitud: 43-11-43N, longitud: 071-30-04W, altitud: 105 m

Observació

L'informe es va fer fa 22 minuts, a les 17:51 UTC
Vent 4 kt amb direcció variable
Temperatura 27°C
Humitat 51%
Pressió 1021 hPa
Visibilitat: 16.1 km
Cel clar

METAR: KCON 261751Z AUTO VRB04KT 10SM CLR 27/16 A3016 RMK AO2 SLP214 T02670161 10272 20150 58016

Hora: 14:13 (18:13 UTC)

Pronòstic

L'informe es va fer fa 53 minuts, a les 17:20 UTC
Pronòstic vàlid del 26 a les 18 UTC al 27 a les 18 UTC
Vent 5 kt del Sud
Visibilitat: 10 km
Núvols disperses a una alçada de 7000 ft
A partir de les 27 a les 0900 UTC
Vent kt del Nord
Visibilitat: 2.4 km
Núvols disperses a una alçada de 25000 ft
boirina
A partir de les 27 a les 1100 UTC
Vent 3 kt del Sud/Sud-Oest
Visibilitat: 10 km
Cel ennuvolat a una alçada de 25000 ft

TAF: KCON 261720Z 2618/2718 18005KT P6SM SCT070 FM270900 00000KT 1 1/2SM BR SCT250 FM271100 20003KT P6SM BKN250

Observacions i pronòstics meteorològics de més de 4000 aeroports (METAR i TAF).

Les estacions disponibles són els punts grocs i vermells al mapa.

Posi el ratolí al punt desitjat per veure el nom de l'estació.

Feu clic per veure les observacions i els pronòstics meteorològics.

Per canviar el mapa: feu clic els botons verds amb una creu de color negre per apropar; al botó verd amb un guió per allunyar la imatge; o en les fletxes verdes per a mapes adjacents.


METAR-TAF: